createdAt,value
2022-11-14T00:00:55.508Z,3.30
2022-11-14T00:03:42.144Z,3.57
2022-11-14T00:06:28.534Z,3.50
2022-11-14T00:09:15.054Z,3.57
2022-11-14T00:12:01.690Z,3.47
2022-11-14T00:14:48.298Z,3.90
2022-11-14T00:17:36.314Z,3.30
2022-11-14T00:20:22.784Z,3.47
2022-11-14T00:23:09.373Z,3.20
2022-11-14T00:25:55.936Z,3.50
2022-11-14T00:28:42.423Z,3.10
2022-11-14T00:31:28.880Z,3.97
2022-11-14T00:34:17.048Z,3.63
2022-11-14T00:37:03.871Z,3.37
2022-11-14T00:39:50.316Z,3.20
2022-11-14T00:42:36.766Z,4.23
2022-11-14T00:45:23.215Z,3.77
2022-11-14T00:48:09.723Z,3.10
2022-11-14T00:50:57.651Z,3.57
2022-11-14T00:53:44.497Z,3.50
2022-11-14T00:56:30.950Z,3.10
2022-11-14T00:59:17.470Z,2.87
2022-11-14T01:02:03.970Z,3.70
2022-11-14T01:04:50.349Z,3.30
2022-11-14T01:07:38.257Z,3.03
2022-11-14T01:10:25.747Z,3.23
2022-11-14T01:13:12.793Z,3.50
2022-11-14T01:16:02.328Z,2.93
2022-11-14T01:18:49.065Z,3.10
2022-11-14T01:21:35.397Z,2.70
2022-11-14T01:24:23.338Z,3.03
2022-11-14T01:27:10.172Z,3.03
2022-11-14T01:29:56.789Z,3.00
2022-11-14T01:32:43.178Z,2.83
2022-11-14T01:35:29.686Z,3.00
2022-11-14T01:38:16.771Z,2.90
2022-11-14T01:41:05.440Z,3.33
2022-11-14T01:43:51.921Z,4.20
2022-11-14T01:46:41.824Z,2.80
2022-11-14T01:49:35.519Z,3.13
2022-11-14T01:52:26.310Z,3.10
2022-11-14T01:55:12.965Z,3.20
2022-11-14T01:58:01.322Z,3.00
2022-11-14T02:00:47.994Z,2.87
2022-11-14T02:03:36.670Z,2.90
2022-11-14T02:06:27.016Z,2.93
2022-11-14T02:09:14.101Z,3.10
2022-11-14T02:12:02.225Z,3.07
2022-11-14T02:14:53.994Z,3.00
2022-11-14T02:17:41.845Z,2.60
2022-11-14T02:20:33.029Z,2.40
2022-11-14T02:23:27.766Z,2.63
2022-11-14T02:26:16.964Z,3.30
2022-11-14T02:29:03.526Z,2.90
2022-11-14T02:31:49.906Z,2.83
2022-11-14T02:34:36.594Z,3.00
2022-11-14T02:37:24.499Z,3.17
2022-11-14T02:40:12.396Z,2.87
2022-11-14T02:42:59.166Z,2.60
2022-11-14T02:45:45.668Z,3.30
2022-11-14T02:48:32.329Z,2.40
2022-11-14T02:51:19.026Z,2.57
2022-11-14T02:54:07.014Z,2.83
2022-11-14T02:56:53.793Z,2.13
2022-11-14T02:59:40.378Z,2.83
2022-11-14T03:02:27.064Z,2.90
2022-11-14T03:05:13.844Z,2.80
2022-11-14T03:08:00.296Z,2.60
2022-11-14T03:10:48.233Z,2.50
2022-11-14T03:13:35.692Z,2.90
2022-11-14T03:16:22.441Z,2.63
2022-11-14T03:19:08.942Z,2.57
2022-11-14T03:21:55.630Z,2.50
2022-11-14T03:24:42.046Z,2.53
2022-11-14T03:27:29.891Z,2.70
2022-11-14T03:30:16.739Z,2.53
2022-11-14T03:33:03.552Z,2.70
2022-11-14T03:35:50.818Z,3.10
2022-11-14T03:38:37.332Z,2.70
2022-11-14T03:41:23.785Z,2.80
2022-11-14T03:44:11.933Z,3.17
2022-11-14T03:46:58.519Z,3.13
2022-11-14T03:49:45.698Z,2.30
2022-11-14T03:52:32.422Z,2.50
2022-11-14T03:55:19.023Z,2.70
2022-11-14T03:58:05.552Z,2.50
2022-11-14T04:00:53.447Z,2.80
2022-11-14T04:03:40.156Z,2.23
2022-11-14T04:06:26.532Z,2.60
2022-11-14T04:09:13.277Z,2.63
2022-11-14T04:11:59.952Z,2.30
2022-11-14T04:14:46.564Z,3.30
2022-11-14T04:17:39.509Z,2.47
2022-11-14T04:20:26.655Z,2.50
2022-11-14T04:23:13.271Z,2.87
2022-11-14T04:25:59.829Z,2.10
2022-11-14T04:28:46.352Z,2.20
2022-11-14T04:31:33.255Z,2.47
2022-11-14T04:34:21.224Z,2.80
2022-11-14T04:37:08.022Z,2.43
2022-11-14T04:39:58.527Z,2.87
2022-11-14T04:42:44.940Z,2.40
2022-11-14T04:45:31.679Z,2.30
2022-11-14T04:48:18.512Z,2.40
2022-11-14T04:51:06.551Z,2.23
2022-11-14T04:53:53.335Z,2.60
2022-11-14T04:56:39.871Z,2.47
2022-11-14T04:59:26.334Z,2.40
2022-11-14T05:02:13.195Z,2.40
2022-11-14T05:04:59.794Z,2.70
2022-11-14T05:07:47.629Z,2.67
2022-11-14T05:10:34.524Z,2.40
2022-11-14T05:13:21.345Z,2.77
2022-11-14T05:16:08.166Z,2.30
2022-11-14T05:18:54.976Z,2.30
2022-11-14T05:21:41.511Z,3.50
2022-11-14T05:24:29.593Z,2.67
2022-11-14T05:27:15.967Z,2.43
2022-11-14T05:30:02.562Z,2.70
2022-11-14T05:32:48.943Z,2.60
2022-11-14T05:35:35.416Z,3.00
2022-11-14T05:38:22.899Z,3.10
2022-11-14T05:41:12.717Z,2.30
2022-11-14T05:43:59.428Z,2.80
2022-11-14T05:46:45.959Z,2.30
2022-11-14T05:49:32.394Z,2.50
2022-11-14T05:52:18.845Z,2.30
2022-11-14T05:55:05.620Z,2.47
2022-11-14T05:57:53.605Z,2.43
2022-11-14T06:00:46.512Z,2.53
2022-11-14T06:03:39.534Z,2.73
2022-11-14T06:06:26.013Z,2.40
2022-11-14T06:09:12.868Z,2.37
2022-11-14T06:11:59.426Z,2.30
2022-11-14T06:14:47.126Z,2.40
2022-11-14T06:17:33.725Z,2.43
2022-11-14T06:20:20.345Z,2.70
2022-11-14T06:23:06.683Z,2.10
2022-11-14T06:25:53.181Z,2.80
2022-11-14T06:28:39.826Z,2.53
2022-11-14T06:31:28.195Z,2.73
2022-11-14T06:34:15.032Z,3.40
2022-11-14T06:37:01.711Z,2.80
2022-11-14T06:39:48.099Z,3.10
2022-11-14T06:42:34.535Z,3.23
2022-11-14T06:45:21.107Z,3.30
2022-11-14T06:48:09.065Z,3.63
2022-11-14T06:50:56.330Z,3.87
2022-11-14T06:53:43.777Z,4.10
2022-11-14T06:56:30.687Z,3.10
2022-11-14T06:59:17.175Z,3.33
2022-11-14T07:02:04.038Z,3.40
2022-11-14T07:04:51.823Z,3.93
2022-11-14T07:07:38.668Z,3.17
2022-11-14T07:10:25.331Z,3.60
2022-11-14T07:13:12.308Z,3.23
2022-11-14T07:15:58.893Z,3.43
2022-11-14T07:18:45.683Z,3.33
2022-11-14T07:21:35.468Z,3.00
2022-11-14T07:24:22.012Z,3.40
2022-11-14T07:27:12.028Z,3.40
2022-11-14T07:29:58.938Z,3.50
2022-11-14T07:32:45.450Z,3.20
2022-11-14T07:35:32.075Z,4.17
2022-11-14T07:38:19.951Z,3.13
2022-11-14T07:41:08.568Z,3.90
2022-11-14T07:43:55.325Z,2.70
2022-11-14T07:46:41.735Z,3.43
2022-11-14T07:49:28.306Z,3.90
2022-11-14T07:52:14.806Z,2.80
2022-11-14T07:55:02.665Z,3.50
2022-11-14T07:57:49.796Z,3.63
2022-11-14T08:00:36.759Z,3.20
2022-11-14T08:03:23.294Z,2.50
2022-11-14T08:06:11.813Z,3.27
2022-11-14T08:08:58.363Z,3.27
2022-11-14T08:11:49.207Z,3.57
2022-11-14T08:14:35.716Z,3.00
2022-11-14T08:17:22.645Z,3.30
2022-11-14T08:20:11.116Z,3.50
2022-11-14T08:23:03.818Z,3.33
2022-11-14T08:25:50.663Z,3.73
2022-11-14T08:28:38.572Z,3.37
2022-11-14T08:31:25.788Z,3.03
2022-11-14T08:34:12.578Z,3.00
2022-11-14T08:36:59.266Z,2.90
2022-11-14T08:39:46.102Z,2.83
2022-11-14T08:42:32.768Z,3.27
2022-11-14T08:45:20.689Z,3.20
2022-11-14T08:48:07.723Z,3.00
2022-11-14T08:50:54.212Z,2.77
2022-11-14T08:53:40.806Z,3.27
2022-11-14T08:56:27.462Z,3.00
2022-11-14T08:59:14.055Z,2.97
2022-11-14T09:02:01.961Z,3.17
2022-11-14T09:04:48.648Z,3.27
2022-11-14T09:07:35.738Z,2.90
2022-11-14T09:10:22.744Z,2.97
2022-11-14T09:13:09.186Z,3.30
2022-11-14T09:15:55.722Z,2.70
2022-11-14T09:18:43.692Z,3.20
2022-11-14T09:21:30.461Z,3.17
2022-11-14T09:24:16.943Z,3.00
2022-11-14T09:27:04.721Z,2.90
2022-11-14T09:29:51.513Z,2.73
2022-11-14T09:32:38.397Z,2.70
2022-11-14T09:35:26.483Z,3.10
2022-11-14T09:38:13.615Z,3.10
2022-11-14T09:41:11.067Z,3.03
2022-11-14T09:44:28.027Z,3.03
2022-11-14T09:47:21.387Z,3.17
2022-11-14T09:50:13.942Z,2.77
2022-11-14T09:53:08.860Z,3.00
2022-11-14T09:55:55.695Z,3.00
2022-11-14T09:58:43.002Z,2.80
2022-11-14T10:01:48.500Z,3.13
2022-11-14T10:04:49.848Z,3.00
2022-11-14T10:07:48.079Z,2.77
2022-11-14T10:10:49.980Z,3.60
2022-11-14T10:14:23.913Z,2.57
2022-11-14T10:17:24.469Z,2.83
2022-11-14T10:20:19.589Z,2.67
2022-11-14T10:23:32.816Z,3.67
2022-11-14T10:26:30.093Z,2.63
2022-11-14T10:29:50.824Z,2.53
2022-11-14T10:32:54.940Z,3.00
2022-11-14T10:35:44.470Z,3.13
2022-11-14T10:38:34.558Z,2.80
2022-11-14T10:41:55.071Z,3.47
2022-11-14T10:44:38.013Z,3.00
2022-11-14T10:47:26.333Z,3.23
2022-11-14T10:50:20.601Z,2.60
2022-11-14T10:53:19.958Z,3.27
2022-11-14T10:56:07.183Z,2.80
2022-11-14T10:58:55.183Z,3.10
2022-11-14T11:01:43.449Z,2.60
2022-11-14T11:04:32.420Z,3.70
2022-11-14T11:07:39.948Z,3.27
2022-11-14T11:10:44.416Z,2.87
2022-11-14T11:13:36.541Z,3.27
2022-11-14T11:16:25.928Z,3.07
2022-11-14T11:19:24.336Z,3.07
2022-11-14T11:22:36.423Z,2.97
2022-11-14T11:25:28.696Z,2.70
2022-11-14T11:28:17.646Z,2.60
2022-11-14T11:31:06.190Z,2.90
2022-11-14T11:33:54.752Z,2.73
2022-11-14T11:36:47.008Z,2.80
2022-11-14T11:39:36.894Z,2.77
2022-11-14T11:43:12.299Z,2.80
2022-11-14T11:45:40.808Z,2.70
2022-11-14T11:48:35.065Z,2.80
2022-11-14T11:51:26.953Z,2.60
2022-11-14T11:54:17.583Z,2.37
2022-11-14T11:57:15.903Z,2.50
2022-11-14T12:00:15.406Z,2.50
2022-11-14T12:03:02.952Z,2.77
2022-11-14T12:05:59.228Z,2.70
2022-11-14T12:09:03.248Z,2.60
2022-11-14T12:11:54.100Z,3.90
2022-11-14T12:14:57.125Z,2.67
2022-11-14T12:18:06.115Z,4.10
2022-11-14T12:21:11.874Z,3.77
2022-11-14T12:24:31.965Z,4.67
2022-11-14T12:27:40.775Z,4.53
2022-11-14T12:30:28.863Z,5.20
2022-11-14T12:33:23.123Z,5.67
2022-11-14T12:36:13.014Z,5.73
2022-11-14T12:39:01.037Z,5.60
2022-11-14T12:41:49.266Z,6.27
2022-11-14T12:44:38.842Z,6.70
2022-11-14T12:47:26.444Z,5.77
2022-11-14T12:50:29.884Z,5.90
2022-11-14T12:53:44.051Z,6.00
2022-11-14T12:56:59.603Z,5.83
2022-11-14T12:59:57.660Z,7.07
2022-11-14T13:03:11.970Z,6.43
2022-11-14T13:06:04.193Z,5.90
2022-11-14T13:09:04.349Z,5.17
2022-11-14T13:12:08.715Z,5.17
2022-11-14T13:15:16.354Z,6.73
2022-11-14T13:18:33.203Z,5.80
2022-11-14T13:21:45.346Z,5.67
2022-11-14T13:25:06.162Z,5.50
2022-11-14T13:28:07.959Z,5.63
2022-11-14T13:31:20.339Z,6.07
2022-11-14T13:34:37.207Z,5.53
2022-11-14T13:37:41.977Z,5.17
2022-11-14T13:40:34.433Z,4.70
2022-11-14T13:43:28.829Z,5.40
2022-11-14T13:46:34.408Z,6.30
2022-11-14T13:49:40.552Z,5.00
2022-11-14T13:52:30.241Z,4.47
2022-11-14T13:55:22.530Z,4.80
2022-11-14T13:58:23.214Z,4.70
2022-11-14T14:01:24.074Z,5.27
2022-11-14T14:04:24.471Z,5.10
2022-11-14T14:07:24.028Z,4.60
2022-11-14T14:10:26.455Z,4.23
2022-11-14T14:13:29.686Z,4.63
2022-11-14T14:16:26.771Z,4.70
2022-11-14T14:19:24.491Z,4.80
2022-11-14T14:22:20.165Z,4.67
2022-11-14T14:25:16.415Z,4.80
2022-11-14T14:28:10.796Z,4.20
2022-11-14T14:31:13.511Z,3.87
2022-11-14T14:34:02.722Z,4.40
2022-11-14T14:36:54.206Z,4.87
2022-11-14T14:39:40.987Z,4.13
2022-11-14T14:42:34.671Z,4.00
2022-11-14T14:45:23.320Z,4.73
2022-11-14T14:48:15.560Z,3.90
2022-11-14T14:51:05.142Z,4.77
2022-11-14T14:53:54.106Z,3.70
2022-11-14T14:56:41.084Z,3.67
2022-11-14T14:59:29.103Z,3.70
2022-11-14T15:02:18.212Z,3.40
2022-11-14T15:05:06.273Z,3.80
2022-11-14T15:07:56.492Z,4.20
2022-11-14T15:10:44.295Z,4.70
2022-11-14T15:13:31.748Z,3.90
2022-11-14T15:16:18.853Z,3.97
2022-11-14T15:19:06.057Z,3.00
2022-11-14T15:22:04.335Z,4.40
2022-11-14T15:25:22.709Z,3.40
2022-11-14T15:28:17.757Z,3.80
2022-11-14T15:31:05.962Z,3.50
2022-11-14T15:34:04.250Z,3.30
2022-11-14T15:37:24.458Z,3.00
2022-11-14T15:40:19.369Z,4.00
2022-11-14T15:43:38.898Z,3.93
2022-11-14T15:46:29.628Z,3.53
2022-11-14T15:49:24.977Z,3.43
2022-11-14T15:52:22.513Z,3.93
2022-11-14T15:55:14.924Z,3.50
2022-11-14T15:58:26.684Z,3.57
2022-11-14T16:01:18.328Z,3.70
2022-11-14T16:04:05.342Z,3.17
2022-11-14T16:06:52.180Z,3.60
2022-11-14T16:09:39.086Z,3.30
2022-11-14T16:12:25.940Z,3.57
2022-11-14T16:15:12.805Z,3.67
2022-11-14T16:18:00.610Z,2.93
2022-11-14T16:20:52.799Z,2.90
2022-11-14T16:23:39.403Z,3.20
2022-11-14T16:26:26.988Z,3.30
2022-11-14T16:29:14.040Z,3.40
2022-11-14T16:32:00.643Z,2.90
2022-11-14T16:34:48.525Z,2.77
2022-11-14T16:37:35.284Z,3.37
2022-11-14T16:40:25.311Z,3.80
2022-11-14T16:43:15.400Z,3.50
2022-11-14T16:46:05.635Z,3.50
2022-11-14T16:48:52.676Z,3.33
2022-11-14T16:51:47.839Z,3.87
2022-11-14T16:54:35.457Z,3.63
2022-11-14T16:57:22.490Z,2.50
2022-11-14T17:00:12.367Z,3.37
2022-11-14T17:02:59.004Z,3.20
2022-11-14T17:05:46.368Z,2.40
2022-11-14T17:08:34.457Z,2.73
2022-11-14T17:11:21.359Z,3.30
2022-11-14T17:14:08.363Z,2.90
2022-11-14T17:16:54.976Z,3.93
2022-11-14T17:19:46.067Z,2.67
2022-11-14T17:22:32.756Z,2.97
2022-11-14T17:25:20.641Z,3.23
2022-11-14T17:28:07.265Z,2.97
2022-11-14T17:30:53.748Z,2.33
2022-11-14T17:33:40.417Z,3.03
2022-11-14T17:36:28.576Z,2.70
2022-11-14T17:39:15.491Z,3.10
2022-11-14T17:42:03.205Z,3.30
2022-11-14T17:44:49.984Z,2.80
2022-11-14T17:47:36.726Z,3.60
2022-11-14T17:50:23.273Z,3.53
2022-11-14T17:53:09.645Z,3.47
2022-11-14T17:55:57.744Z,3.53
2022-11-14T17:58:47.060Z,2.93
2022-11-14T18:01:33.895Z,3.60
2022-11-14T18:04:20.840Z,3.60
2022-11-14T18:07:07.356Z,3.83
2022-11-14T18:09:54.378Z,3.33
2022-11-14T18:12:40.682Z,3.73
2022-11-14T18:15:28.762Z,2.83
2022-11-14T18:18:15.575Z,3.47
2022-11-14T18:21:07.757Z,3.50
2022-11-14T18:23:55.683Z,3.60
2022-11-14T18:26:42.238Z,3.70
2022-11-14T18:29:30.735Z,3.67
2022-11-14T18:32:19.079Z,3.20
2022-11-14T18:35:06.631Z,4.20
2022-11-14T18:37:53.313Z,3.37
2022-11-14T18:40:43.908Z,3.30
2022-11-14T18:43:32.734Z,3.70
2022-11-14T18:46:21.697Z,3.33
2022-11-14T18:49:11.191Z,3.50
2022-11-14T18:52:00.130Z,3.00
2022-11-14T18:54:49.078Z,3.80
2022-11-14T18:57:35.605Z,3.27
2022-11-14T19:00:22.288Z,3.70
2022-11-14T19:03:09.827Z,3.40
2022-11-14T19:06:03.178Z,2.83
2022-11-14T19:08:50.092Z,3.83
2022-11-14T19:11:54.326Z,3.63
2022-11-14T19:14:40.894Z,4.13
2022-11-14T19:17:27.477Z,3.20
2022-11-14T19:20:14.900Z,2.70
2022-11-14T19:23:02.828Z,3.30
2022-11-14T19:25:49.478Z,3.83
2022-11-14T19:28:36.080Z,3.33
2022-11-14T19:31:23.555Z,3.17
2022-11-14T19:34:10.660Z,3.93
2022-11-14T19:37:00.405Z,3.30
2022-11-14T19:39:52.387Z,3.70
2022-11-14T19:42:38.875Z,3.30
2022-11-14T19:45:25.307Z,3.43
2022-11-14T19:48:12.153Z,3.47
2022-11-14T19:51:03.153Z,3.53
2022-11-14T19:53:50.523Z,5.13
2022-11-14T19:56:38.351Z,3.60
2022-11-14T19:59:27.850Z,4.43
2022-11-14T20:02:14.705Z,3.57
2022-11-14T20:05:01.488Z,3.60
2022-11-14T20:07:48.216Z,3.63
2022-11-14T20:10:47.657Z,3.10
2022-11-14T20:13:37.954Z,3.23
2022-11-14T20:16:27.964Z,3.23
2022-11-14T20:19:14.825Z,2.80
2022-11-14T20:22:01.786Z,3.63
2022-11-14T20:24:48.464Z,3.70
2022-11-14T20:27:35.045Z,3.10
2022-11-14T20:30:23.325Z,4.13
2022-11-14T20:33:10.519Z,4.07
2022-11-14T20:36:02.242Z,4.20
2022-11-14T20:38:49.426Z,3.80
2022-11-14T20:41:36.303Z,4.20
2022-11-14T20:44:23.474Z,4.03
2022-11-14T20:47:11.783Z,4.00
2022-11-14T20:49:59.005Z,3.20
2022-11-14T20:52:47.102Z,3.27
2022-11-14T20:55:34.228Z,3.90
2022-11-14T20:58:21.149Z,4.27
2022-11-14T21:01:08.362Z,3.60
2022-11-14T21:03:56.694Z,3.73
2022-11-14T21:06:43.442Z,4.00
2022-11-14T21:09:29.954Z,3.53
2022-11-14T21:12:16.636Z,3.40
2022-11-14T21:15:03.152Z,3.40
2022-11-14T21:17:49.529Z,2.97
2022-11-14T21:20:37.397Z,3.80
2022-11-14T21:23:24.105Z,3.07
2022-11-14T21:26:12.325Z,4.20
2022-11-14T21:29:01.204Z,3.03
2022-11-14T21:31:48.120Z,3.10
2022-11-14T21:34:35.202Z,3.67
2022-11-14T21:37:22.959Z,3.27
2022-11-14T21:40:11.171Z,3.43
2022-11-14T21:42:58.482Z,3.37
2022-11-14T21:45:45.853Z,2.93
2022-11-14T21:48:37.502Z,4.00
2022-11-14T21:51:29.291Z,3.10
2022-11-14T21:54:17.503Z,4.00
2022-11-14T21:57:09.707Z,3.80
2022-11-14T21:59:56.945Z,3.60
2022-11-14T22:03:00.617Z,3.50
2022-11-14T22:05:47.295Z,3.40
2022-11-14T22:08:33.953Z,3.30
2022-11-14T22:11:22.438Z,3.93
2022-11-14T22:14:09.420Z,3.50
2022-11-14T22:16:55.889Z,3.33
2022-11-14T22:19:42.340Z,4.00
2022-11-14T22:22:29.011Z,3.67
2022-11-14T22:25:15.440Z,3.30
2022-11-14T22:28:03.510Z,4.13
2022-11-14T22:30:50.603Z,3.83
2022-11-14T22:33:45.481Z,3.20
2022-11-14T22:36:33.418Z,3.57
2022-11-14T22:39:19.828Z,4.20
2022-11-14T22:42:06.474Z,4.07
2022-11-14T22:44:54.639Z,4.47
2022-11-14T22:47:41.359Z,3.57
2022-11-14T22:50:27.798Z,3.47
2022-11-14T22:53:14.574Z,4.07
2022-11-14T22:56:01.662Z,3.77
2022-11-14T22:58:48.574Z,4.00
2022-11-14T23:01:36.626Z,3.70
2022-11-14T23:04:23.444Z,3.50
2022-11-14T23:07:09.973Z,4.20
2022-11-14T23:09:57.107Z,3.63
2022-11-14T23:12:43.683Z,3.80
2022-11-14T23:15:30.505Z,4.00
2022-11-14T23:18:18.701Z,4.43
2022-11-14T23:21:06.375Z,3.73
2022-11-14T23:23:57.927Z,3.93
2022-11-14T23:26:44.592Z,3.40
2022-11-14T23:29:31.328Z,4.20
2022-11-14T23:32:18.065Z,4.23
2022-11-14T23:35:06.885Z,3.90
2022-11-14T23:37:53.430Z,4.53
2022-11-14T23:40:39.929Z,4.70
2022-11-14T23:43:26.432Z,4.20
2022-11-14T23:46:13.265Z,4.50
2022-11-14T23:48:59.883Z,4.73
2022-11-14T23:51:47.734Z,4.10
2022-11-14T23:54:34.596Z,4.43
2022-11-14T23:57:21.148Z,4.80
